WetterOnline ( https://www.wetteronline.de )

Wetter aktuell Kappeln

Aktuelles Wetter: Schönhagen (Ostseebad) (2m)

6-stündlich | Neueste Meldungen
Ortszeit Temperatur Wetter
So, 07.06. 2:00 10.6° C wolkenlos
Sa, 06.06. 20:00 11.1° C bewölkt
Sa, 06.06. 14:00 13.6° C leicht bewölkt
Sa, 06.06. 8:00 9.8° C leicht bewölkt
Sa, 06.06. 2:00 9.0° C bewölkt
Fr, 05.06. 20:00 14.8° C leichter Regen
Fr, 05.06. 14:00 14.3° C leicht bewölkt
Fr, 05.06. 8:00 11.5° C wolkig
Ortszeit Temperatur Wetter
So, 07.06. 2:00 10.6° C wolkenlos
So, 07.06. 1:50 10.6° C wolkenlos
So, 07.06. 1:40 10.7° C fast wolkenlos
So, 07.06. 1:30 11.0° C wolkig
So, 07.06. 1:20 11.0° C wolkig
So, 07.06. 1:10 10.8° C bewölkt
So, 07.06. 1:00 10.7° C wolkig
So, 07.06. 0:30 10.8° C wolkig
So, 07.06. 0:00 10.8° C bedeckt
Sa, 06.06. 23:30 10.3° C wolkig
Sa, 06.06. 23:00 10.1° C bewölkt
Ortszeit Relative Feuchte Sichtweite
So, 07.06. 2:00 83% 50 km
Sa, 06.06. 20:00 75% 65 km
Sa, 06.06. 14:00 64% 50 km
Sa, 06.06. 8:00 86% 65 km
Sa, 06.06. 2:00 90% >70 km
Fr, 05.06. 20:00 63% 40 km
Fr, 05.06. 14:00 60% 55 km
Fr, 05.06. 8:00 77% >70 km
Ortszeit Relative Feuchte Sichtweite
So, 07.06. 2:00 83% 50 km
So, 07.06. 1:50 83% -
So, 07.06. 1:40 83% -
So, 07.06. 1:30 81% 50 km
So, 07.06. 1:20 81% -
So, 07.06. 1:10 83% -
So, 07.06. 1:00 83% 55 km
So, 07.06. 0:30 85% 60 km
So, 07.06. 0:00 85% 55 km
Sa, 06.06. 23:30 87% 55 km
Sa, 06.06. 23:00 87% 50 km
Ortszeit Niederschlagsmenge Niederschlagsart
So, 07.06. 2:00 0.0 l/m2 in 6 Std. -
Sa, 06.06. 20:00 1 l/m2 in 12 Std. Regen
Sa, 06.06. 14:00 0.6 l/m2 in 6 Std. Regen
Sa, 06.06. 8:00 13 l/m2 in 12 Std. Regen
Sa, 06.06. 2:00 4 l/m2 in 6 Std. Regen
Fr, 05.06. 20:00 0.9 l/m2 in 12 Std. Regen
Fr, 05.06. 14:00 0.9 l/m2 in 6 Std. Regen
Fr, 05.06. 8:00 1 l/m2 in 12 Std. Regen
Ortszeit Niederschlagsmenge Niederschlagsart
So, 07.06. 2:00 0.0 l/m2 in 1 Std. -
So, 07.06. 1:50 keine Meldung -
So, 07.06. 1:40 keine Meldung -
So, 07.06. 1:30 0.0 l/m2 in 1 Std. -
So, 07.06. 1:20 keine Meldung -
So, 07.06. 1:10 keine Meldung -
So, 07.06. 1:00 0.0 l/m2 in 1 Std. -
So, 07.06. 0:30 0.0 l/m2 in 1 Std. -
So, 07.06. 0:00 0.0 l/m2 in 1 Std. -
Sa, 06.06. 23:30 0.0 l/m2 in 1 Std. -
Sa, 06.06. 23:00 0.0 l/m2 in 1 Std. -
Ortszeit Stärke Spitze Richtung
km/h Bft. km/h Grad Sektor
So, 07.06. 2:00 13 3 26 160° S
Sa, 06.06. 20:00 13 3 48 190° S
Sa, 06.06. 14:00 24 4 67 240° SW
Sa, 06.06. 8:00 24 4 50 230° SW
Sa, 06.06. 2:00 25 4 65 260° W
Fr, 05.06. 20:00 32 5 47 140° SO
Fr, 05.06. 14:00 19 3 54 220° SW
Fr, 05.06. 8:00 18 3 32 240° SW
Ortszeit Stärke Spitze Richtung
km/h Bft. km/h Grad Sektor
So, 07.06. 2:00 13 3 26 160° S
So, 07.06. 1:50 13 3 - 160° S
So, 07.06. 1:40 14 3 - 160° S
So, 07.06. 1:30 13 3 20 150° SO
So, 07.06. 1:20 13 3 - 150° SO
So, 07.06. 1:10 11 2 - 170° S
So, 07.06. 1:00 13 3 20 170° S
So, 07.06. 0:30 11 2 18 180° S
So, 07.06. 0:00 14 3 22 180° S
Sa, 06.06. 23:30 11 2 14 180° S
Sa, 06.06. 23:00 7 2 11 190° S
Ortszeit Untergrenze Bedeckung Gattung
total tief tief mittel hoch
So, 07.06. 2:00 - 0/8 0/8 - - -
Sa, 06.06. 20:00 1440 m 7/8 6/8 - - -
Sa, 06.06. 14:00 1500 m 4/8 4/8 - - -
Sa, 06.06. 8:00 420 m 2/8 5/8 - - -
Sa, 06.06. 2:00 900 m 7/8 7/8 - - -
Fr, 05.06. 20:00 1500 m 8/8 8/8 - - -
Fr, 05.06. 14:00 1110 m 3/8 2/8 - - -
Fr, 05.06. 8:00 810 m 7/8 2/8 - - -
Ortszeit Bedeckungsgrad in Achtel und Wolkenuntergrenze
So, 07.06. 2:00 keine Wolken
So, 07.06. 1:50 keine Wolken
So, 07.06. 1:40 1(3000m)
So, 07.06. 1:30 6(3000m)
So, 07.06. 1:20 6(3000m)
So, 07.06. 1:10 7(3000m)
So, 07.06. 1:00 6(3000m)
So, 07.06. 0:30 6(2700m) 6(5400m)
So, 07.06. 0:00 8(2700m) 8(5400m)
Sa, 06.06. 23:30 3(2700m) 8(5700m) 8(6900m)
Sa, 06.06. 23:00 7(2700m) 7(6300m) 7(7200m)
Ortszeit Luftdruck NN (hPa) Tendenz (hPa in 3 Std.)
So, 07.06. 2:00 1001 - 0,1
Sa, 06.06. 20:00 1001 + 1,9
Sa, 06.06. 14:00 997 + 2,1
Sa, 06.06. 8:00 994 + 1,7
Sa, 06.06. 2:00 990 + 1,4
Fr, 05.06. 20:00 989 - 2,6
Fr, 05.06. 14:00 992 - 0,2
Fr, 05.06. 8:00 992 + 1,0
Ortszeit Luftdruck NN (hPa) Tendenz (hPa in 3 Std.)
So, 07.06. 2:00 1001 - 0,1
So, 07.06. 1:50 1001 keine Meldung
So, 07.06. 1:40 1001 keine Meldung
So, 07.06. 1:30 1001 - 0,1
So, 07.06. 1:20 1001 keine Meldung
So, 07.06. 1:10 1001 keine Meldung
So, 07.06. 1:00 1001 0,0
So, 07.06. 0:30 1002 + 0,3
So, 07.06. 0:00 1002 + 0,7
Sa, 06.06. 23:30 1002 + 1,1
Sa, 06.06. 23:00 1002 + 0,9
Ortszeit Schneehöhe (cm)
So, 07.06. 2:00 -
Sa, 06.06. 20:00 -
Sa, 06.06. 14:00 -
Sa, 06.06. 8:00 -
Sa, 06.06. 2:00 -
Fr, 05.06. 20:00 -
Fr, 05.06. 14:00 -
Fr, 05.06. 8:00 -
Ortszeit Schneehöhe (cm)
So, 07.06. 2:00 -
So, 07.06. 1:50 -
So, 07.06. 1:40 -
So, 07.06. 1:30 -
So, 07.06. 1:20 -
So, 07.06. 1:10 -
So, 07.06. 1:00 -
So, 07.06. 0:30 -
So, 07.06. 0:00 -
Sa, 06.06. 23:30 -
Sa, 06.06. 23:00 -
Link zu dieser Seite / Seite empfehlen

Das Wetter in ...